createdAt,value
2023-05-17T00:00:53.791Z,11.52
2023-05-17T00:01:54.117Z,11.49
2023-05-17T00:02:54.585Z,11.50
2023-05-17T00:03:54.725Z,11.52
2023-05-17T00:04:55.088Z,11.52
2023-05-17T00:05:55.410Z,11.52
2023-05-17T00:06:55.510Z,11.53
2023-05-17T00:07:55.837Z,11.56
2023-05-17T00:08:56.115Z,11.57
2023-05-17T00:09:56.464Z,11.57
2023-05-17T00:10:56.876Z,11.54
2023-05-17T00:11:57.003Z,11.52
2023-05-17T00:12:58.569Z,11.52
2023-05-17T00:13:57.640Z,11.52
2023-05-17T00:14:58.038Z,11.50
2023-05-17T00:15:58.146Z,11.52
2023-05-17T00:16:58.439Z,11.50
2023-05-17T00:17:58.919Z,11.49
2023-05-17T00:18:59.108Z,11.47
2023-05-17T00:19:59.435Z,11.47
2023-05-17T00:20:59.717Z,11.46
2023-05-17T00:21:59.958Z,11.43
2023-05-17T00:23:00.180Z,11.44
2023-05-17T00:24:00.532Z,11.46
2023-05-17T00:25:00.831Z,11.49
2023-05-17T00:26:01.148Z,11.47
2023-05-17T00:27:01.422Z,11.46
2023-05-17T00:28:01.763Z,11.44
2023-05-17T00:29:01.921Z,11.43
2023-05-17T00:30:02.227Z,11.46
2023-05-17T00:31:02.550Z,11.43
2023-05-17T00:32:02.875Z,11.41
2023-05-17T00:33:03.293Z,11.43
2023-05-17T00:34:03.509Z,11.38
2023-05-17T00:35:03.717Z,11.38
2023-05-17T00:36:04.047Z,11.39
2023-05-17T00:37:04.311Z,11.43
2023-05-17T00:38:04.661Z,11.38
2023-05-17T00:39:04.904Z,11.38
2023-05-17T00:40:05.218Z,11.34
2023-05-17T00:41:05.550Z,11.35
2023-05-17T00:42:05.825Z,11.38
2023-05-17T00:43:06.140Z,11.35
2023-05-17T00:44:06.526Z,11.35
2023-05-17T00:45:06.755Z,11.34
2023-05-17T00:46:07.149Z,11.36
2023-05-17T00:47:07.413Z,11.34
2023-05-17T00:48:07.943Z,11.32
2023-05-17T00:49:08.069Z,11.35
2023-05-17T00:50:08.350Z,11.36
2023-05-17T00:51:08.449Z,11.34
2023-05-17T00:52:09.283Z,11.29
2023-05-17T00:53:09.129Z,11.29
2023-05-17T00:54:09.415Z,11.32
2023-05-17T00:55:09.765Z,11.32
2023-05-17T00:56:10.148Z,11.34
2023-05-17T00:57:10.378Z,11.35
2023-05-17T00:58:10.775Z,11.36
2023-05-17T00:59:10.913Z,11.34
2023-05-17T01:00:11.242Z,11.34
2023-05-17T01:01:11.481Z,11.31
2023-05-17T01:02:11.803Z,11.29
2023-05-17T01:03:12.292Z,11.25
2023-05-17T01:04:12.707Z,11.25
2023-05-17T01:05:12.815Z,11.24
2023-05-17T01:06:13.006Z,11.24
2023-05-17T01:07:13.287Z,11.19
2023-05-17T01:08:13.538Z,11.19
2023-05-17T01:09:13.844Z,11.16
2023-05-17T01:10:14.143Z,11.14
2023-05-17T01:11:14.427Z,11.11
2023-05-17T01:12:14.815Z,11.11
2023-05-17T01:13:15.054Z,11.11
2023-05-17T01:14:15.320Z,11.11
2023-05-17T01:15:15.648Z,11.13
2023-05-17T01:16:15.989Z,11.13
2023-05-17T01:17:16.259Z,11.16
2023-05-17T01:18:16.639Z,11.13
2023-05-17T01:19:16.836Z,11.11
2023-05-17T01:20:17.193Z,11.11
2023-05-17T01:21:17.350Z,11.11
2023-05-17T01:22:17.688Z,11.13
2023-05-17T01:23:17.985Z,11.13
2023-05-17T01:24:18.316Z,11.14
2023-05-17T01:25:18.534Z,11.14
2023-05-17T01:26:18.852Z,11.17
2023-05-17T01:27:19.221Z,11.17
2023-05-17T01:28:19.472Z,11.17
2023-05-17T01:29:19.791Z,11.17
2023-05-17T01:30:20.097Z,11.16
2023-05-17T01:31:20.414Z,11.19
2023-05-17T01:32:20.711Z,11.20
2023-05-17T01:33:21.069Z,11.16
2023-05-17T01:34:21.394Z,11.14
2023-05-17T01:35:21.658Z,11.14
2023-05-17T01:36:21.949Z,11.16
2023-05-17T01:37:22.279Z,11.13
2023-05-17T01:38:22.498Z,11.14
2023-05-17T01:39:22.801Z,11.14
2023-05-17T01:40:23.110Z,11.13
2023-05-17T01:41:23.444Z,11.13
2023-05-17T01:42:23.697Z,11.17
2023-05-17T01:43:24.049Z,11.19
2023-05-17T01:44:24.342Z,11.13
2023-05-17T01:45:24.652Z,11.14
2023-05-17T01:46:24.918Z,11.13
2023-05-17T01:47:25.390Z,11.14
2023-05-17T01:48:25.498Z,11.13
2023-05-17T01:49:25.795Z,11.14
2023-05-17T01:50:26.203Z,11.16
2023-05-17T01:51:26.441Z,11.13
2023-05-17T01:52:26.811Z,11.11
2023-05-17T01:53:27.124Z,11.11
2023-05-17T01:54:27.409Z,11.13
2023-05-17T01:55:27.841Z,11.17
2023-05-17T01:56:28.058Z,11.17
2023-05-17T01:57:28.200Z,11.19
2023-05-17T01:58:28.504Z,11.19
2023-05-17T01:59:28.876Z,11.17
2023-05-17T02:00:29.048Z,11.19
2023-05-17T02:01:29.401Z,11.21
2023-05-17T02:02:29.761Z,11.17
2023-05-17T02:03:29.982Z,11.16
2023-05-17T02:04:30.165Z,11.16
2023-05-17T02:05:30.731Z,11.14
2023-05-17T02:06:30.807Z,11.16
2023-05-17T02:07:31.101Z,11.13
2023-05-17T02:08:31.375Z,11.11
2023-05-17T02:09:31.691Z,11.11
2023-05-17T02:10:32.011Z,11.13
2023-05-17T02:11:32.333Z,11.09
2023-05-17T02:12:33.664Z,11.03
2023-05-17T02:13:32.935Z,11.02
2023-05-17T02:14:33.219Z,10.99
2023-05-17T02:15:33.513Z,10.96
2023-05-17T02:16:33.884Z,10.94
2023-05-17T02:17:34.369Z,10.92
2023-05-17T02:18:34.549Z,10.92
2023-05-17T02:19:34.831Z,10.88
2023-05-17T02:20:35.034Z,10.84
2023-05-17T02:21:35.264Z,10.86
2023-05-17T02:22:35.620Z,10.83
2023-05-17T02:23:35.892Z,10.78
2023-05-17T02:24:36.231Z,10.76
2023-05-17T02:25:36.485Z,10.78
2023-05-17T02:26:36.802Z,10.76
2023-05-17T02:27:37.705Z,10.77
2023-05-17T02:28:37.424Z,10.77
2023-05-17T02:29:37.742Z,10.73
2023-05-17T02:30:38.095Z,10.71
2023-05-17T02:31:38.229Z,10.74
2023-05-17T02:32:38.599Z,10.76
2023-05-17T02:33:39.000Z,10.73
2023-05-17T02:34:39.191Z,10.68
2023-05-17T02:35:39.453Z,10.65
2023-05-17T02:36:39.767Z,10.65
2023-05-17T02:37:40.065Z,10.62
2023-05-17T02:38:40.494Z,10.58
2023-05-17T02:39:40.723Z,10.58
2023-05-17T02:40:40.952Z,10.56
2023-05-17T02:41:41.344Z,10.58
2023-05-17T02:42:41.578Z,10.58
2023-05-17T02:43:41.799Z,10.53
2023-05-17T02:44:42.143Z,10.55
2023-05-17T02:45:42.533Z,10.58
2023-05-17T02:46:42.641Z,10.56
2023-05-17T02:47:43.095Z,10.56
2023-05-17T02:48:43.275Z,10.55
2023-05-17T02:49:43.623Z,10.53
2023-05-17T02:50:43.997Z,10.53
2023-05-17T02:51:45.140Z,10.52
2023-05-17T02:52:44.459Z,10.55
2023-05-17T02:53:44.838Z,10.55
2023-05-17T02:54:45.104Z,10.55
2023-05-17T02:55:45.370Z,10.58
2023-05-17T02:56:45.672Z,10.53
2023-05-17T02:57:45.964Z,10.52
2023-05-17T02:58:46.316Z,10.55
2023-05-17T02:59:46.567Z,10.56
2023-05-17T03:00:46.887Z,10.59
2023-05-17T03:01:47.132Z,10.58
2023-05-17T03:02:47.495Z,10.56
2023-05-17T03:03:47.919Z,10.55
2023-05-17T03:04:48.105Z,10.56
2023-05-17T03:05:48.286Z,10.58
2023-05-17T03:06:48.554Z,10.58
2023-05-17T03:07:48.924Z,10.56
2023-05-17T03:08:49.138Z,10.56
2023-05-17T03:09:49.559Z,10.59
2023-05-17T03:10:49.758Z,10.59
2023-05-17T03:11:50.034Z,10.60
2023-05-17T03:12:50.387Z,10.62
2023-05-17T03:13:50.564Z,10.60
2023-05-17T03:14:50.926Z,10.56
2023-05-17T03:15:51.297Z,10.53
2023-05-17T03:16:51.510Z,10.55
2023-05-17T03:17:51.815Z,10.58
2023-05-17T03:18:52.132Z,10.60
2023-05-17T03:19:52.382Z,10.58
2023-05-17T03:20:52.490Z,10.56
2023-05-17T03:21:52.721Z,10.56
2023-05-17T03:22:53.057Z,10.55
2023-05-17T03:23:53.253Z,10.53
2023-05-17T03:24:53.584Z,10.51
2023-05-17T03:25:53.863Z,10.51
2023-05-17T03:26:54.209Z,10.53
2023-05-17T03:27:54.664Z,10.52
2023-05-17T03:28:54.840Z,10.46
2023-05-17T03:29:55.186Z,10.44
2023-05-17T03:30:55.649Z,10.44
2023-05-17T03:31:55.923Z,10.46
2023-05-17T03:32:56.194Z,10.47
2023-05-17T03:33:56.420Z,10.47
2023-05-17T03:34:56.706Z,10.51
2023-05-17T03:35:57.023Z,10.39
2023-05-17T03:36:57.348Z,10.39
2023-05-17T03:37:57.708Z,10.39
2023-05-17T03:38:58.014Z,10.40
2023-05-17T03:39:58.279Z,10.39
2023-05-17T03:40:58.509Z,10.36
2023-05-17T03:41:58.747Z,10.39
2023-05-17T03:42:58.943Z,10.39
2023-05-17T03:43:59.306Z,10.37
2023-05-17T03:44:59.643Z,10.40
2023-05-17T03:45:59.841Z,10.39
2023-05-17T03:47:00.233Z,10.37
2023-05-17T03:48:00.522Z,10.37
2023-05-17T03:49:00.716Z,10.36
2023-05-17T03:50:01.085Z,10.37
2023-05-17T03:51:01.293Z,10.34
2023-05-17T03:52:01.614Z,10.36
2023-05-17T03:53:01.954Z,10.33
2023-05-17T03:54:02.174Z,10.36
2023-05-17T03:55:02.637Z,10.34
2023-05-17T03:56:02.798Z,10.37
2023-05-17T03:57:03.156Z,10.40
2023-05-17T03:58:03.399Z,10.40
2023-05-17T03:59:03.649Z,10.43
2023-05-17T04:00:03.927Z,10.42
2023-05-17T04:01:05.070Z,10.42
2023-05-17T04:02:04.531Z,10.42
2023-05-17T04:03:04.919Z,10.40
2023-05-17T04:04:05.195Z,10.42
2023-05-17T04:05:05.549Z,10.44
2023-05-17T04:06:05.834Z,10.51
2023-05-17T04:07:06.008Z,10.51
2023-05-17T04:08:06.231Z,10.52
2023-05-17T04:09:06.457Z,10.51
2023-05-17T04:10:06.814Z,10.46
2023-05-17T04:11:07.133Z,10.46
2023-05-17T04:12:07.367Z,10.47
2023-05-17T04:13:07.682Z,10.43
2023-05-17T04:14:07.912Z,10.44
2023-05-17T04:15:08.195Z,10.46
2023-05-17T04:16:08.549Z,10.46
2023-05-17T04:17:08.816Z,10.46
2023-05-17T04:18:09.060Z,10.46
2023-05-17T04:19:09.316Z,10.51
2023-05-17T04:20:09.576Z,10.52
2023-05-17T04:21:09.809Z,10.52
2023-05-17T04:22:10.034Z,10.52
2023-05-17T04:23:10.302Z,10.55
2023-05-17T04:24:10.515Z,10.59
2023-05-17T04:25:10.892Z,10.58
2023-05-17T04:26:11.137Z,10.60
2023-05-17T04:27:11.529Z,10.60
2023-05-17T04:28:11.724Z,10.59
2023-05-17T04:29:12.250Z,10.55
2023-05-17T04:30:12.363Z,10.56
2023-05-17T04:31:12.728Z,10.58
2023-05-17T04:32:12.968Z,10.52
2023-05-17T04:33:14.361Z,10.46
2023-05-17T04:34:13.531Z,10.46
2023-05-17T04:35:13.935Z,10.51
2023-05-17T04:36:13.948Z,10.52
2023-05-17T04:37:14.280Z,10.51
2023-05-17T04:38:14.649Z,10.52
2023-05-17T04:39:14.908Z,10.52
2023-05-17T04:40:15.187Z,10.52
2023-05-17T04:41:15.571Z,10.47
2023-05-17T04:42:15.776Z,10.42
2023-05-17T04:43:16.217Z,10.43
2023-05-17T04:44:16.577Z,10.42
2023-05-17T04:45:16.685Z,10.43
2023-05-17T04:46:17.263Z,10.40
2023-05-17T04:47:17.411Z,10.34
2023-05-17T04:48:17.667Z,10.34
2023-05-17T04:49:17.939Z,10.37
2023-05-17T04:50:18.132Z,10.40
2023-05-17T04:51:18.481Z,10.43
2023-05-17T04:52:18.787Z,10.46
2023-05-17T04:53:19.161Z,10.44
2023-05-17T04:54:19.395Z,10.43
2023-05-17T04:55:19.732Z,10.46
2023-05-17T04:56:20.013Z,10.47
2023-05-17T04:57:20.350Z,10.46
2023-05-17T04:58:20.656Z,10.46
2023-05-17T04:59:21.024Z,10.44
2023-05-17T05:00:21.265Z,10.43
2023-05-17T05:01:21.598Z,10.37
2023-05-17T05:02:21.875Z,10.39
2023-05-17T05:03:22.110Z,10.39
2023-05-17T05:04:22.426Z,10.40
2023-05-17T05:05:22.769Z,10.40
2023-05-17T05:06:23.012Z,10.40
2023-05-17T05:07:23.334Z,10.43
2023-05-17T05:08:23.674Z,10.42
2023-05-17T05:09:24.055Z,10.46
2023-05-17T05:10:24.265Z,10.43
2023-05-17T05:11:24.707Z,10.40
2023-05-17T05:12:25.317Z,10.46
2023-05-17T05:13:25.136Z,10.52
2023-05-17T05:14:25.436Z,10.58
2023-05-17T05:15:26.290Z,10.63
2023-05-17T05:16:26.099Z,10.66
2023-05-17T05:17:26.960Z,10.71
2023-05-17T05:18:26.699Z,10.76
2023-05-17T05:19:26.926Z,10.76
2023-05-17T05:20:28.144Z,10.81
2023-05-17T05:21:27.638Z,10.86
2023-05-17T05:22:27.806Z,10.94
2023-05-17T05:23:28.018Z,10.96
2023-05-17T05:24:28.344Z,10.99
2023-05-17T05:25:28.927Z,10.99
2023-05-17T05:26:29.008Z,11.01
2023-05-17T05:27:29.209Z,11.01
2023-05-17T05:28:30.132Z,10.99
2023-05-17T05:29:29.826Z,10.99
2023-05-17T05:30:30.226Z,10.98
2023-05-17T05:31:30.525Z,10.98
2023-05-17T05:32:31.016Z,10.99
2023-05-17T05:33:31.119Z,11.01
2023-05-17T05:34:31.356Z,11.02
2023-05-17T05:35:31.676Z,11.02
2023-05-17T05:36:31.774Z,11.01
2023-05-17T05:37:32.145Z,10.98
2023-05-17T05:38:32.499Z,10.98
2023-05-17T05:39:32.723Z,10.99
2023-05-17T05:40:34.919Z,10.95
2023-05-17T05:41:33.251Z,10.99
2023-05-17T05:42:33.456Z,10.98
2023-05-17T05:43:33.908Z,11.03
2023-05-17T05:44:34.062Z,11.06
2023-05-17T05:45:34.474Z,11.06
2023-05-17T05:46:34.658Z,11.06
2023-05-17T05:47:35.061Z,11.10
2023-05-17T05:48:35.457Z,11.10
2023-05-17T05:49:35.590Z,11.17
2023-05-17T05:50:35.931Z,11.21
2023-05-17T05:51:36.089Z,11.24
2023-05-17T05:52:36.354Z,11.21
2023-05-17T05:53:36.643Z,11.21
2023-05-17T05:54:36.964Z,11.27
2023-05-17T05:55:37.155Z,11.29
2023-05-17T05:56:37.370Z,11.31
2023-05-17T05:57:37.665Z,11.35
2023-05-17T05:58:37.994Z,11.36
2023-05-17T05:59:38.654Z,11.38
2023-05-17T06:00:38.414Z,11.41
2023-05-17T06:01:38.765Z,11.44
2023-05-17T06:02:39.042Z,11.47
2023-05-17T06:03:39.319Z,11.49
2023-05-17T06:04:45.002Z,11.46
2023-05-17T06:05:41.069Z,11.43
2023-05-17T06:06:40.133Z,11.43
2023-05-17T06:07:40.367Z,11.39
2023-05-17T06:08:40.616Z,11.41
2023-05-17T06:09:40.949Z,11.43
2023-05-17T06:10:41.255Z,11.47
2023-05-17T06:11:41.618Z,11.47
2023-05-17T06:12:42.973Z,11.50
2023-05-17T06:13:42.221Z,11.49
2023-05-17T06:14:42.410Z,11.54
2023-05-17T06:15:42.762Z,11.52
2023-05-17T06:16:43.004Z,11.59
2023-05-17T06:17:43.466Z,11.59
2023-05-17T06:18:43.598Z,11.65
2023-05-17T06:19:44.039Z,11.71
2023-05-17T06:20:44.087Z,11.75
2023-05-17T06:21:44.444Z,11.82
2023-05-17T06:22:44.758Z,11.83
2023-05-17T06:23:45.003Z,11.87
2023-05-17T06:24:45.252Z,11.86
2023-05-17T06:25:45.474Z,11.87
2023-05-17T06:26:45.861Z,11.89
2023-05-17T06:27:46.153Z,11.94
2023-05-17T06:28:46.395Z,11.94
2023-05-17T06:29:46.665Z,11.99
2023-05-17T06:30:46.912Z,12.01
2023-05-17T06:31:47.100Z,12.04
2023-05-17T06:32:47.516Z,12.11
2023-05-17T06:33:47.768Z,12.16
2023-05-17T06:34:48.078Z,12.23
2023-05-17T06:36:49.510Z,12.27
2023-05-17T06:37:48.880Z,12.29
2023-05-17T06:38:49.203Z,12.27
2023-05-17T06:39:55.407Z,12.33
2023-05-17T06:40:51.438Z,12.34
2023-05-17T06:41:50.016Z,12.38
2023-05-17T06:42:50.400Z,12.42
2023-05-17T06:43:50.519Z,12.45
2023-05-17T06:44:50.944Z,12.45
2023-05-17T06:45:51.138Z,12.48
2023-05-17T06:46:51.410Z,12.52
2023-05-17T06:47:51.824Z,12.57
2023-05-17T06:48:51.984Z,12.54
2023-05-17T06:49:52.222Z,12.64
2023-05-17T06:50:52.461Z,12.67
2023-05-17T06:51:52.752Z,12.66
2023-05-17T06:52:53.056Z,12.67
2023-05-17T06:53:53.273Z,12.67
2023-05-17T06:54:53.673Z,12.70
2023-05-17T06:55:53.853Z,12.77
2023-05-17T06:56:54.080Z,12.84
2023-05-17T06:57:54.401Z,12.92
2023-05-17T06:58:54.643Z,12.95
2023-05-17T06:59:55.108Z,12.97
2023-05-17T07:00:55.370Z,12.95
2023-05-17T07:01:55.388Z,12.92
2023-05-17T07:02:55.823Z,12.89
2023-05-17T07:03:56.169Z,12.93
2023-05-17T07:04:56.472Z,12.96
2023-05-17T07:05:56.641Z,12.97
2023-05-17T07:06:56.912Z,13.00
2023-05-17T07:07:57.181Z,13.09
2023-05-17T07:08:57.389Z,13.14
2023-05-17T07:09:57.746Z,13.07
2023-05-17T07:10:57.906Z,13.12
2023-05-17T07:11:58.307Z,13.20
2023-05-17T07:12:58.557Z,13.15
2023-05-17T07:13:58.829Z,13.11
2023-05-17T07:14:59.085Z,13.11
2023-05-17T07:15:59.410Z,13.14
2023-05-17T07:16:59.666Z,13.20
2023-05-17T07:18:00.035Z,13.24
2023-05-17T07:19:00.432Z,13.27
2023-05-17T07:20:00.705Z,13.27
2023-05-17T07:21:00.857Z,13.29
2023-05-17T07:22:01.125Z,13.32
2023-05-17T07:23:01.376Z,13.37
2023-05-17T07:24:01.734Z,13.36
2023-05-17T07:25:02.656Z,13.38
2023-05-17T07:26:02.116Z,13.41
2023-05-17T07:27:02.488Z,13.44
2023-05-17T07:28:02.740Z,13.46
2023-05-17T07:29:03.041Z,13.52
2023-05-17T07:30:03.303Z,13.54
2023-05-17T07:31:03.489Z,13.55
2023-05-17T07:32:04.675Z,13.59
2023-05-17T07:33:04.050Z,13.63
2023-05-17T07:34:04.438Z,13.76
2023-05-17T07:35:04.664Z,13.84
2023-05-17T07:36:05.212Z,13.89
2023-05-17T07:37:05.167Z,13.98
2023-05-17T07:38:05.501Z,14.01
2023-05-17T07:39:05.688Z,14.13
2023-05-17T07:40:07.049Z,14.21
2023-05-17T07:41:06.626Z,14.21
2023-05-17T07:42:06.484Z,14.24
2023-05-17T07:43:06.744Z,14.29
2023-05-17T07:44:06.989Z,14.39
2023-05-17T07:45:07.425Z,14.38
2023-05-17T07:46:07.496Z,14.39
2023-05-17T07:47:07.777Z,14.38
2023-05-17T07:48:08.357Z,14.35
2023-05-17T07:49:08.451Z,14.29
2023-05-17T07:50:08.636Z,14.27
2023-05-17T07:51:08.823Z,14.28
2023-05-17T07:52:09.170Z,14.31
2023-05-17T07:53:09.459Z,14.35
2023-05-17T07:54:10.644Z,14.37
2023-05-17T07:55:09.926Z,14.32
2023-05-17T07:56:10.321Z,14.27
2023-05-17T07:57:10.802Z,14.19
2023-05-17T07:58:10.822Z,14.14
2023-05-17T07:59:11.185Z,14.09
2023-05-17T08:00:11.370Z,14.09
2023-05-17T08:01:11.718Z,14.06
2023-05-17T08:02:12.122Z,14.04
2023-05-17T08:03:13.139Z,14.09
2023-05-17T08:04:12.601Z,14.04
2023-05-17T08:05:12.756Z,14.01
2023-05-17T08:06:13.101Z,13.96
2023-05-17T08:07:13.360Z,13.96
2023-05-17T08:08:13.660Z,13.98
2023-05-17T08:09:14.000Z,13.96
2023-05-17T08:10:15.100Z,13.94
2023-05-17T08:11:14.484Z,13.92
2023-05-17T08:12:14.717Z,13.92
2023-05-17T08:13:15.142Z,13.96
2023-05-17T08:14:15.176Z,14.50
2023-05-17T08:15:15.468Z,14.52
2023-05-17T08:16:15.741Z,14.42
2023-05-17T08:17:16.003Z,14.44
2023-05-17T08:18:16.361Z,14.43
2023-05-17T08:19:16.638Z,14.35
2023-05-17T08:20:16.763Z,14.27
2023-05-17T08:21:17.038Z,14.19
2023-05-17T08:22:17.535Z,14.16
2023-05-17T08:23:17.535Z,14.14
2023-05-17T08:24:17.864Z,14.19
2023-05-17T08:25:18.205Z,14.20
2023-05-17T08:26:18.458Z,14.20
2023-05-17T08:27:18.751Z,14.13
2023-05-17T08:28:18.950Z,14.09
2023-05-17T08:29:19.471Z,14.01
2023-05-17T08:30:28.529Z,13.99
2023-05-17T08:31:20.960Z,13.98
2023-05-17T08:32:20.220Z,13.95
2023-05-17T08:33:20.848Z,13.94
2023-05-17T08:34:20.705Z,13.89
2023-05-17T08:35:20.960Z,13.89
2023-05-17T08:36:21.224Z,13.84
2023-05-17T08:37:21.685Z,13.92
2023-05-17T08:38:21.774Z,13.94
2023-05-17T08:39:22.067Z,13.95
2023-05-17T08:40:22.429Z,13.99
2023-05-17T08:41:22.649Z,13.99
2023-05-17T08:42:22.932Z,14.02
2023-05-17T08:43:24.197Z,14.06
2023-05-17T08:44:23.397Z,14.10
2023-05-17T08:45:23.681Z,14.19
2023-05-17T08:46:23.982Z,14.52
2023-05-17T08:47:24.251Z,15.20
2023-05-17T08:48:24.626Z,15.46
2023-05-17T08:49:25.139Z,15.75
2023-05-17T08:50:25.463Z,15.64
2023-05-17T08:51:25.457Z,15.99
2023-05-17T08:52:26.180Z,16.18
2023-05-17T08:53:26.072Z,16.40
2023-05-17T08:54:26.175Z,16.37
2023-05-17T08:55:26.438Z,16.58
2023-05-17T08:56:26.688Z,16.52
2023-05-17T08:57:27.063Z,16.52
2023-05-17T08:58:27.363Z,16.60
2023-05-17T08:59:27.668Z,17.20
2023-05-17T09:00:28.314Z,17.88
2023-05-17T09:01:29.929Z,17.99
2023-05-17T09:02:28.576Z,17.84
2023-05-17T09:03:28.949Z,17.67
2023-05-17T09:04:29.197Z,17.46
2023-05-17T09:05:29.302Z,17.18
2023-05-17T09:06:29.762Z,16.99
2023-05-17T09:07:29.975Z,16.95
2023-05-17T09:08:30.304Z,16.93
2023-05-17T09:09:30.538Z,17.03
2023-05-17T09:10:31.029Z,16.89
2023-05-17T09:11:31.243Z,16.83
2023-05-17T09:12:31.273Z,16.63
2023-05-17T09:13:31.672Z,16.44
2023-05-17T09:14:31.989Z,16.37
2023-05-17T09:15:33.174Z,16.33
2023-05-17T09:16:32.917Z,16.42
2023-05-17T09:17:32.931Z,16.42
2023-05-17T09:18:33.354Z,16.40
2023-05-17T09:19:33.265Z,16.15
2023-05-17T09:20:33.724Z,16.14
2023-05-17T09:21:33.790Z,16.09
2023-05-17T09:22:34.005Z,16.07
2023-05-17T09:23:34.464Z,16.11
2023-05-17T09:24:34.490Z,16.12
2023-05-17T09:25:34.916Z,16.07
2023-05-17T09:26:35.095Z,16.04
2023-05-17T09:27:35.453Z,15.93
2023-05-17T09:28:35.720Z,15.88
2023-05-17T09:29:35.968Z,15.88
2023-05-17T09:30:36.319Z,15.92
2023-05-17T09:31:36.735Z,15.89
2023-05-17T09:32:36.949Z,15.94
2023-05-17T09:33:37.114Z,15.92
2023-05-17T09:34:37.359Z,15.93
2023-05-17T09:35:37.607Z,15.94
2023-05-17T09:36:38.110Z,15.82
2023-05-17T09:37:38.204Z,15.66
2023-05-17T09:38:38.452Z,15.63
2023-05-17T09:39:39.011Z,15.54
2023-05-17T09:40:39.164Z,15.52
2023-05-17T09:41:39.427Z,15.35
2023-05-17T09:42:39.741Z,15.28
2023-05-17T09:43:39.990Z,15.24
2023-05-17T09:44:40.175Z,15.28
2023-05-17T09:45:40.604Z,15.30
2023-05-17T09:46:40.923Z,15.36
2023-05-17T09:47:41.184Z,15.33
2023-05-17T09:48:41.562Z,15.30
2023-05-17T09:49:41.659Z,15.26
2023-05-17T09:50:42.049Z,15.17
2023-05-17T09:51:42.318Z,15.24
2023-05-17T09:52:42.573Z,15.27
2023-05-17T09:53:42.807Z,15.27
2023-05-17T09:54:43.104Z,15.24
2023-05-17T09:55:50.300Z,15.26
2023-05-17T09:56:43.635Z,15.23
2023-05-17T09:57:44.055Z,15.24
2023-05-17T09:58:44.369Z,15.26
2023-05-17T09:59:45.050Z,15.30
2023-05-17T10:00:44.894Z,15.28
2023-05-17T10:01:45.818Z,15.30
2023-05-17T10:02:45.493Z,15.38
2023-05-17T10:03:45.757Z,15.28
2023-05-17T10:04:47.400Z,15.24
2023-05-17T10:05:46.347Z,15.21
2023-05-17T10:06:50.686Z,15.26
2023-05-17T10:07:47.058Z,15.21
2023-05-17T10:08:47.241Z,15.20
2023-05-17T10:09:47.450Z,15.27
2023-05-17T10:10:47.806Z,15.30
2023-05-17T10:11:48.159Z,15.31
2023-05-17T10:12:48.445Z,15.33
2023-05-17T10:13:48.775Z,15.42
2023-05-17T10:14:48.977Z,15.48
2023-05-17T10:15:49.304Z,15.52
2023-05-17T10:16:49.536Z,15.59
2023-05-17T10:17:49.895Z,15.60
2023-05-17T10:18:50.199Z,15.64
2023-05-17T10:19:50.371Z,15.64
2023-05-17T10:20:50.594Z,15.66
2023-05-17T10:21:50.886Z,15.70
2023-05-17T10:22:51.181Z,15.70
2023-05-17T10:23:51.389Z,15.67
2023-05-17T10:24:51.926Z,15.74
2023-05-17T10:25:52.015Z,15.63
2023-05-17T10:26:52.446Z,15.57
2023-05-17T10:27:53.580Z,15.60
2023-05-17T10:28:52.908Z,15.61
2023-05-17T10:29:53.303Z,15.60
2023-05-17T10:30:53.570Z,15.60
2023-05-17T10:31:53.799Z,15.63
2023-05-17T10:32:54.178Z,15.74
2023-05-17T10:33:54.330Z,15.78
2023-05-17T10:35:09.212Z,15.79
2023-05-17T10:35:55.929Z,15.75
2023-05-17T10:36:55.217Z,15.78
2023-05-17T10:37:55.557Z,15.82
2023-05-17T10:38:55.741Z,15.92
2023-05-17T10:39:56.054Z,16.01
2023-05-17T10:40:56.323Z,16.34
2023-05-17T10:42:07.104Z,17.67
2023-05-17T10:42:57.988Z,18.84
2023-05-17T10:43:57.202Z,19.75
2023-05-17T10:44:57.529Z,20.46
2023-05-17T10:45:57.728Z,21.02
2023-05-17T10:46:58.023Z,21.57
2023-05-17T10:47:59.742Z,22.06
2023-05-17T10:48:58.625Z,22.43
2023-05-17T10:49:58.879Z,22.68
2023-05-17T10:51:01.832Z,23.04
2023-05-17T10:51:59.510Z,23.20
2023-05-17T10:52:59.677Z,23.17
2023-05-17T10:53:59.943Z,23.46
2023-05-17T10:55:00.277Z,23.72
2023-05-17T10:56:00.490Z,23.86
2023-05-17T10:57:00.716Z,23.67
2023-05-17T10:58:01.099Z,23.95
2023-05-17T10:59:01.311Z,24.16
2023-05-17T11:00:01.634Z,24.23
2023-05-17T11:01:02.067Z,24.32
2023-05-17T11:02:02.143Z,24.49
2023-05-17T11:03:02.530Z,23.71
2023-05-17T11:04:02.780Z,23.22
2023-05-17T11:05:03.175Z,22.77
2023-05-17T11:06:03.678Z,21.35
2023-05-17T11:07:06.568Z,20.68
2023-05-17T11:08:03.840Z,20.33
2023-05-17T11:09:04.292Z,19.97
2023-05-17T11:10:04.563Z,20.06
2023-05-17T11:11:04.757Z,19.68
2023-05-17T11:12:04.953Z,19.39
2023-05-17T11:13:05.397Z,19.17
2023-05-17T11:14:05.577Z,18.72
2023-05-17T11:15:08.241Z,18.47
2023-05-17T11:16:06.110Z,18.31
2023-05-17T11:17:06.473Z,18.09
2023-05-17T11:19:07.152Z,17.88
2023-05-17T11:20:07.537Z,17.74
2023-05-17T11:21:07.837Z,17.66
2023-05-17T11:22:07.873Z,17.66
2023-05-17T11:23:08.232Z,17.66
2023-05-17T11:24:08.413Z,17.53
2023-05-17T11:25:12.982Z,17.46
2023-05-17T11:26:15.539Z,17.35
2023-05-17T11:27:10.272Z,17.30
2023-05-17T11:28:10.481Z,17.11
2023-05-17T11:29:09.793Z,17.03
2023-05-17T11:30:11.205Z,16.89
2023-05-17T11:31:10.464Z,16.80
2023-05-17T11:32:10.802Z,16.67
2023-05-17T11:33:21.321Z,16.63
2023-05-17T11:34:12.381Z,16.63
2023-05-17T11:35:11.607Z,16.68
2023-05-17T11:36:11.850Z,16.67
2023-05-17T11:37:12.125Z,16.67
2023-05-17T11:38:12.905Z,16.60
2023-05-17T11:39:12.717Z,17.07
2023-05-17T11:40:13.022Z,17.28
2023-05-17T11:41:25.548Z,17.54
2023-05-17T11:42:14.601Z,18.06
2023-05-17T11:43:13.870Z,18.29
2023-05-17T11:44:14.097Z,19.18
2023-05-17T11:45:14.324Z,20.10
2023-05-17T11:46:14.590Z,20.10
2023-05-17T11:47:15.091Z,19.54
2023-05-17T11:48:15.309Z,19.65
2023-05-17T11:49:26.959Z,19.90
2023-05-17T11:50:16.843Z,20.15
2023-05-17T11:51:16.006Z,20.30
2023-05-17T11:52:16.262Z,20.33
2023-05-17T11:53:16.777Z,20.21
2023-05-17T11:54:16.784Z,19.88
2023-05-17T11:55:18.017Z,19.55
2023-05-17T11:56:17.485Z,19.65
2023-05-17T11:57:17.722Z,19.36
2023-05-17T11:58:17.948Z,19.28
2023-05-17T11:59:18.175Z,19.14
2023-05-17T12:00:18.519Z,18.80
2023-05-17T12:01:18.876Z,18.40
2023-05-17T12:02:20.042Z,17.97
2023-05-17T12:03:19.304Z,17.88
2023-05-17T12:04:19.814Z,17.57
2023-05-17T12:05:19.834Z,17.25
2023-05-17T12:06:20.252Z,17.22
2023-05-17T12:07:20.525Z,17.15
2023-05-17T12:08:20.767Z,17.18
2023-05-17T12:09:21.041Z,17.23
2023-05-17T12:10:21.349Z,17.29
2023-05-17T12:11:21.514Z,17.33
2023-05-17T12:12:21.970Z,17.32
2023-05-17T12:13:22.172Z,17.38
2023-05-17T12:14:22.572Z,17.40
2023-05-17T12:15:22.723Z,17.46
2023-05-17T12:16:23.012Z,17.47
2023-05-17T12:17:23.227Z,17.51
2023-05-17T12:18:23.740Z,17.54
2023-05-17T12:19:23.943Z,17.55
2023-05-17T12:20:24.061Z,17.66
2023-05-17T12:21:24.333Z,17.74
2023-05-17T12:22:24.563Z,17.85
2023-05-17T12:23:24.792Z,18.03
2023-05-17T12:24:25.161Z,18.09
2023-05-17T12:25:25.585Z,18.10
2023-05-17T12:26:25.688Z,18.13
2023-05-17T12:27:25.878Z,18.15
2023-05-17T12:28:26.185Z,18.13
2023-05-17T12:29:26.383Z,18.12
2023-05-17T12:30:26.896Z,17.94
2023-05-17T12:31:27.103Z,17.85
2023-05-17T12:32:27.335Z,17.88
2023-05-17T12:33:27.652Z,17.89
2023-05-17T12:34:27.932Z,17.91
2023-05-17T12:35:28.088Z,17.99
2023-05-17T12:36:28.498Z,18.04
2023-05-17T12:37:28.829Z,18.04
2023-05-17T12:38:28.973Z,17.95
2023-05-17T12:39:29.205Z,17.88
2023-05-17T12:40:29.943Z,17.89
2023-05-17T12:41:29.819Z,17.89
2023-05-17T12:42:30.103Z,17.89
2023-05-17T12:43:30.284Z,17.87
2023-05-17T12:44:30.668Z,17.89
2023-05-17T12:45:30.888Z,17.85
2023-05-17T12:46:31.194Z,17.82
2023-05-17T12:47:31.554Z,17.81
2023-05-17T12:48:31.674Z,17.79
2023-05-17T12:49:32.027Z,17.79
2023-05-17T12:50:32.372Z,17.84
2023-05-17T12:51:32.685Z,17.95
2023-05-17T12:52:32.916Z,18.03
2023-05-17T12:53:33.260Z,18.00
2023-05-17T12:54:33.605Z,18.06
2023-05-17T12:55:33.718Z,18.12
2023-05-17T12:56:34.076Z,18.12
2023-05-17T12:57:34.515Z,18.09
2023-05-17T12:58:34.670Z,18.12